createdAt,value
2023-05-09T00:00:06.907Z,22.70
2023-05-09T00:05:10.177Z,22.70
2023-05-09T00:10:14.629Z,22.70
2023-05-09T00:15:17.476Z,22.70
2023-05-09T00:20:20.805Z,22.70
2023-05-09T00:25:25.308Z,22.70
2023-05-09T00:30:28.178Z,22.70
2023-05-09T00:35:32.301Z,22.70
2023-05-09T00:40:36.559Z,22.60
2023-05-09T00:45:39.530Z,22.60
2023-05-09T00:50:42.592Z,22.70
2023-05-09T00:55:47.143Z,22.70
2023-05-09T01:00:49.995Z,22.60
2023-05-09T01:05:59.469Z,22.60
2023-05-09T01:11:10.592Z,22.60
2023-05-09T01:16:22.142Z,22.60
2023-05-09T01:21:29.420Z,22.60
2023-05-09T01:26:45.462Z,22.60
2023-05-09T01:31:50.856Z,22.60
2023-05-09T01:36:57.429Z,22.60
2023-05-09T01:42:04.172Z,22.60
2023-05-09T01:47:09.376Z,22.60
2023-05-09T01:52:17.696Z,22.50
2023-05-09T01:57:21.151Z,22.50
2023-05-09T02:02:26.959Z,22.50
2023-05-09T02:07:30.759Z,22.50
2023-05-09T02:12:35.057Z,22.60
2023-05-09T02:17:39.292Z,22.50
2023-05-09T02:22:44.047Z,22.50
2023-05-09T02:27:47.894Z,22.50
2023-05-09T02:32:56.164Z,22.50
2023-05-09T02:38:00.735Z,22.50
2023-05-09T02:43:04.105Z,22.50
2023-05-09T02:48:09.518Z,22.50
2023-05-09T02:53:12.508Z,22.50
2023-05-09T02:58:15.372Z,22.50
2023-05-09T03:03:19.831Z,22.50
2023-05-09T03:08:22.772Z,22.50
2023-05-09T03:13:25.916Z,22.50
2023-05-09T03:18:30.185Z,22.50
2023-05-09T03:23:33.163Z,22.50
2023-05-09T03:28:36.071Z,22.50
2023-05-09T03:33:40.274Z,22.50
2023-05-09T03:38:43.176Z,22.50
2023-05-09T03:43:46.253Z,22.50
2023-05-09T03:48:50.474Z,22.40
2023-05-09T03:53:53.381Z,22.50
2023-05-09T03:58:56.282Z,22.40
2023-05-09T04:04:00.589Z,22.40
2023-05-09T04:09:03.596Z,22.40
2023-05-09T04:14:07.347Z,22.40
2023-05-09T04:19:11.653Z,22.40
2023-05-09T04:24:14.565Z,22.40
2023-05-09T04:29:17.542Z,22.40
2023-05-09T04:34:21.977Z,22.40
2023-05-09T04:39:24.909Z,22.40
2023-05-09T04:44:27.755Z,22.40
2023-05-09T04:49:32.221Z,22.40
2023-05-09T04:54:35.141Z,22.40
2023-05-09T04:59:38.013Z,22.40
2023-05-09T05:04:42.362Z,22.40
2023-05-09T05:09:45.393Z,22.40
2023-05-09T05:14:48.414Z,22.40
2023-05-09T05:19:52.626Z,22.40
2023-05-09T05:24:55.539Z,22.40
2023-05-09T05:29:58.518Z,22.40
2023-05-09T05:35:04.876Z,22.40
2023-05-09T05:40:09.803Z,22.40
2023-05-09T05:45:13.338Z,22.40
2023-05-09T05:50:17.715Z,22.50
2023-05-09T05:55:20.771Z,22.50
2023-05-09T06:00:23.835Z,22.50
2023-05-09T06:05:28.118Z,22.40
2023-05-09T06:10:30.992Z,22.40
2023-05-09T06:15:33.947Z,22.50
2023-05-09T06:20:38.160Z,22.40
2023-05-09T06:25:41.156Z,22.40
2023-05-09T06:30:44.006Z,22.40
2023-05-09T06:35:48.321Z,22.50
2023-05-09T06:40:51.367Z,22.40
2023-05-09T06:45:54.323Z,22.40
2023-05-09T06:50:58.549Z,22.40
2023-05-09T06:56:01.511Z,22.50
2023-05-09T07:01:04.921Z,22.50
2023-05-09T07:06:09.418Z,22.50
2023-05-09T07:11:12.315Z,22.50
2023-05-09T07:16:15.938Z,22.60
2023-05-09T07:21:20.232Z,22.60
2023-05-09T07:26:23.384Z,22.60
2023-05-09T07:31:26.404Z,22.60
2023-05-09T07:36:30.613Z,22.60
2023-05-09T07:41:33.533Z,22.70
2023-05-09T07:46:37.581Z,22.70
2023-05-09T07:51:41.861Z,22.70
2023-05-09T07:56:44.809Z,22.70
2023-05-09T08:01:47.746Z,22.80
2023-05-09T08:06:51.954Z,22.80
2023-05-09T08:11:54.914Z,22.80
2023-05-09T08:16:57.809Z,22.80
2023-05-09T08:22:02.085Z,22.90
2023-05-09T08:27:05.106Z,23.00
2023-05-09T08:32:08.545Z,23.00
2023-05-09T08:37:15.083Z,23.10
2023-05-09T08:42:25.477Z,23.20
2023-05-09T08:47:29.772Z,23.20
2023-05-09T08:52:34.825Z,23.30
2023-05-09T08:57:38.174Z,23.30
2023-05-09T09:02:42.956Z,23.30
2023-05-09T09:07:47.937Z,23.30
2023-05-09T09:12:52.263Z,23.40
2023-05-09T09:17:57.530Z,23.40
2023-05-09T09:23:05.612Z,23.50
2023-05-09T09:28:08.538Z,23.50
2023-05-09T09:33:20.281Z,23.50
2023-05-09T09:38:25.710Z,23.50
2023-05-09T09:43:29.601Z,23.60
2023-05-09T09:48:33.853Z,23.50
2023-05-09T09:53:41.773Z,23.60
2023-05-09T09:58:44.674Z,23.60
2023-05-09T10:03:48.028Z,23.60
2023-05-09T10:08:52.490Z,23.60
2023-05-09T10:13:55.481Z,23.60
2023-05-09T10:18:58.488Z,23.60
2023-05-09T10:24:04.362Z,23.60
2023-05-09T10:29:11.849Z,23.60
2023-05-09T10:34:16.514Z,23.60
2023-05-09T10:39:21.051Z,23.70
2023-05-09T10:44:25.368Z,23.70
2023-05-09T10:49:28.763Z,23.70
2023-05-09T10:54:33.685Z,23.70
2023-05-09T10:59:39.262Z,23.70
2023-05-09T11:04:42.333Z,23.70
2023-05-09T11:09:46.573Z,23.70
2023-05-09T11:14:51.756Z,23.80
2023-05-09T11:20:05.490Z,23.70
2023-05-09T11:25:11.638Z,23.80
2023-05-09T11:30:17.040Z,23.70
2023-05-09T11:35:21.826Z,23.80
2023-05-09T11:40:26.245Z,23.80
2023-05-09T11:45:31.027Z,23.80
2023-05-09T11:50:34.142Z,23.80
2023-05-09T11:55:39.250Z,23.80
2023-05-09T12:00:45.973Z,23.80
2023-05-09T12:05:49.520Z,23.80
2023-05-09T12:10:53.828Z,23.80
2023-05-09T12:16:01.727Z,23.80
2023-05-09T12:21:07.182Z,23.80
2023-05-09T12:26:12.420Z,23.80
2023-05-09T12:31:15.613Z,23.80
2023-05-09T12:36:18.786Z,23.80
2023-05-09T12:41:36.895Z,23.80
2023-05-09T12:46:54.612Z,23.90
2023-05-09T12:52:01.119Z,23.90
2023-05-09T12:57:06.888Z,23.80
2023-05-09T13:02:09.935Z,23.90
2023-05-09T13:07:13.166Z,23.90
2023-05-09T13:12:20.619Z,23.90
2023-05-09T13:17:23.581Z,23.90
2023-05-09T13:22:26.764Z,23.90
2023-05-09T13:27:31.270Z,23.90
2023-05-09T13:32:34.163Z,24.00
2023-05-09T13:37:37.163Z,24.00
2023-05-09T13:42:41.534Z,24.00
2023-05-09T13:47:44.481Z,24.00
2023-05-09T13:52:47.421Z,24.00
2023-05-09T13:57:51.629Z,24.00
2023-05-09T14:02:54.743Z,24.00
2023-05-09T14:07:57.636Z,24.00
2023-05-09T14:13:02.075Z,24.00
2023-05-09T14:18:05.337Z,24.00
2023-05-09T14:23:08.298Z,24.00
2023-05-09T14:28:12.886Z,24.00
2023-05-09T14:33:15.856Z,24.00
2023-05-09T14:38:18.799Z,24.00
2023-05-09T14:43:24.317Z,24.00
2023-05-09T14:48:27.349Z,24.00
2023-05-09T14:53:31.248Z,24.00
2023-05-09T14:58:35.789Z,24.00
2023-05-09T15:03:39.364Z,24.00
2023-05-09T15:08:42.352Z,24.00
2023-05-09T15:13:46.623Z,24.00
2023-05-09T15:18:49.597Z,24.00
2023-05-09T15:23:52.497Z,24.00
2023-05-09T15:28:56.771Z,24.00
2023-05-09T15:33:59.754Z,23.90
2023-05-09T15:39:05.363Z,24.00
2023-05-09T15:44:09.640Z,24.00
2023-05-09T15:49:12.869Z,24.00
2023-05-09T15:54:15.831Z,23.90
2023-05-09T15:59:20.145Z,23.90
2023-05-09T16:04:24.365Z,23.90
2023-05-09T16:09:27.272Z,23.80
2023-05-09T16:14:31.636Z,23.80
2023-05-09T16:19:36.146Z,23.80
2023-05-09T16:24:39.261Z,23.80
2023-05-09T16:29:44.167Z,23.80
2023-05-09T16:34:47.676Z,23.70
2023-05-09T16:39:50.897Z,23.70
2023-05-09T16:44:55.860Z,23.70
2023-05-09T16:49:58.740Z,23.70
2023-05-09T16:55:01.618Z,23.60
2023-05-09T17:00:07.834Z,23.60
2023-05-09T17:05:11.120Z,23.60
2023-05-09T17:10:14.237Z,23.60
2023-05-09T17:15:18.784Z,23.60
2023-05-09T17:20:21.820Z,23.50
2023-05-09T17:25:24.727Z,23.60
2023-05-09T17:30:29.226Z,23.50
2023-05-09T17:35:32.169Z,23.50
2023-05-09T17:40:35.079Z,23.40
2023-05-09T17:45:39.316Z,23.40
2023-05-09T17:50:43.536Z,23.40
2023-05-09T17:55:46.415Z,23.40
2023-05-09T18:00:53.790Z,23.40
2023-05-09T18:05:57.205Z,23.40
2023-05-09T18:11:00.169Z,23.40
2023-05-09T18:16:04.644Z,23.30
2023-05-09T18:21:09.539Z,23.30
2023-05-09T18:26:12.462Z,23.30
2023-05-09T18:31:18.044Z,23.30
2023-05-09T18:36:20.975Z,23.30
2023-05-09T18:41:24.172Z,23.20
2023-05-09T18:46:29.974Z,23.20
2023-05-09T18:51:34.026Z,23.20
2023-05-09T18:56:39.396Z,23.20
2023-05-09T19:01:44.028Z,23.20
2023-05-09T19:06:47.264Z,23.10
2023-05-09T19:11:50.182Z,23.10
2023-05-09T19:16:54.507Z,23.10
2023-05-09T19:21:57.443Z,23.10
2023-05-09T19:27:00.484Z,23.10
2023-05-09T19:32:05.715Z,23.10
2023-05-09T19:37:08.627Z,23.10
2023-05-09T19:42:11.535Z,23.10
2023-05-09T19:47:15.822Z,23.10
2023-05-09T19:52:19.269Z,23.10
2023-05-09T19:57:22.789Z,23.00
2023-05-09T20:02:27.160Z,23.00
2023-05-09T20:07:30.393Z,23.00
2023-05-09T20:12:33.271Z,23.00
2023-05-09T20:17:37.579Z,23.00
2023-05-09T20:22:40.923Z,23.00
2023-05-09T20:27:43.754Z,23.00
2023-05-09T20:32:48.123Z,23.00
2023-05-09T20:37:51.057Z,23.00
2023-05-09T20:42:53.976Z,23.00
2023-05-09T20:47:59.076Z,23.00
2023-05-09T20:53:02.044Z,23.00
2023-05-09T20:58:04.909Z,23.00
2023-05-09T21:03:10.265Z,22.90
2023-05-09T21:08:13.520Z,22.90
2023-05-09T21:13:16.498Z,22.90
2023-05-09T21:18:21.684Z,22.90
2023-05-09T21:23:24.549Z,22.90
2023-05-09T21:28:27.996Z,22.90
2023-05-09T21:33:32.200Z,22.90
2023-05-09T21:38:35.098Z,22.90
2023-05-09T21:43:38.595Z,22.90
2023-05-09T21:48:42.776Z,22.80
2023-05-09T21:53:46.469Z,22.90
2023-05-09T21:58:49.377Z,22.90
2023-05-09T22:03:53.759Z,22.90
2023-05-09T22:08:56.796Z,22.80
2023-05-09T22:13:59.652Z,22.80
2023-05-09T22:19:03.912Z,22.80
2023-05-09T22:24:07.672Z,22.80
2023-05-09T22:29:10.569Z,22.80
2023-05-09T22:34:14.866Z,22.80
2023-05-09T22:39:17.768Z,22.80
2023-05-09T22:44:20.621Z,22.80
2023-05-09T22:49:24.876Z,22.80
2023-05-09T22:54:27.741Z,22.80
2023-05-09T22:59:30.663Z,22.80
2023-05-09T23:04:34.933Z,22.80
2023-05-09T23:09:38.404Z,22.80
2023-05-09T23:14:41.495Z,22.80
2023-05-09T23:19:46.186Z,22.80
2023-05-09T23:24:49.090Z,22.80
2023-05-09T23:29:51.997Z,22.80
2023-05-09T23:34:56.464Z,22.80
2023-05-09T23:39:59.472Z,22.80
2023-05-09T23:45:02.402Z,22.80
2023-05-09T23:50:08.255Z,22.80
2023-05-09T23:55:11.577Z,22.80
